Time;durP1;ratioP1;P1;durP2;ratioP2;P2;SDS_P1;SDS_P2;PMS_P1;PMS_P2;Temp;Humidity;BMP_temperature;BMP_pressure;BME280_temperature;BME280_humidity;BME280_pressure;Samples;Min_cycle;Max_cycle;Signal;HPM_P1;HPM_P2
2023/07/02 00:01:51;;;;;;;;;;;25.70;51.70;;;;;;5053039;28;20017;-59
2023/07/02 00:04:19;;;;;;;;;;;25.60;51.70;;;;;;5052664;28;19920;-60
2023/07/02 00:06:47;;;;;;;;;;;25.60;51.70;;;;;;5052893;28;20347;-59
2023/07/02 00:09:14;;;;;;;;;;;25.60;51.70;;;;;;5052422;28;19974;-59
2023/07/02 00:11:43;;;;;;;;;;;25.60;51.70;;;;;;5052840;28;19921;-58
2023/07/02 00:14:10;;;;;;;;;;;25.60;51.70;;;;;;5052476;28;19968;-59
2023/07/02 00:16:44;;;;;;;;;;;25.60;51.70;;;;;;5052706;28;19951;-59
2023/07/02 00:19:12;;;;;;;;;;;25.60;51.70;;;;;;5052631;28;19921;-58
2023/07/02 00:21:40;;;;;;;;;;;25.60;51.70;;;;;;5052804;28;19974;-58
2023/07/02 00:24:09;;;;;;;;;;;25.60;51.70;;;;;;5052342;28;20380;-59
2023/07/02 00:26:37;;;;;;;;;;;25.60;51.70;;;;;;5056109;28;19925;-59
2023/07/02 00:29:06;;;;;;;;;;;25.60;51.80;;;;;;5056470;28;20278;-59
2023/07/02 00:31:33;;;;;;;;;;;25.60;51.80;;;;;;5056119;28;19928;-58
2023/07/02 00:34:01;;;;;;;;;;;25.60;51.80;;;;;;5056580;28;19968;-58
2023/07/02 00:36:28;;;;;;;;;;;25.60;51.80;;;;;;5056347;28;19927;-59
2023/07/02 00:38:56;;;;;;;;;;;25.60;51.80;;;;;;5056544;28;20004;-59
2023/07/02 00:41:24;;;;;;;;;;;25.60;51.80;;;;;;5056450;28;19924;-59
2023/07/02 00:43:54;;;;;;;;;;;25.60;51.80;;;;;;5056058;28;19931;-59
2023/07/02 00:46:24;;;;;;;;;;;25.60;51.80;;;;;;5056171;28;19921;-59
2023/07/02 00:48:53;;;;;;;;;;;25.60;51.80;;;;;;5055370;28;20404;-59
2023/07/02 00:51:21;;;;;;;;;;;25.60;51.80;;;;;;5087961;28;19928;-58
2023/07/02 00:53:48;;;;;;;;;;;25.60;51.80;;;;;;5056063;28;20332;-59
2023/07/02 00:56:15;;;;;;;;;;;25.60;51.80;;;;;;5055872;28;19974;-59
2023/07/02 00:58:50;;;;;;;;;;;25.60;51.80;;;;;;5056050;28;19928;-59
2023/07/02 01:01:19;;;;;;;;;;;25.60;51.80;;;;;;5055942;28;19920;-60
2023/07/02 01:03:59;;;;;;;;;;;25.60;51.90;;;;;;5055560;28;19974;-59
2023/07/02 01:06:27;;;;;;;;;;;25.60;51.80;;;;;;5055507;28;19929;-59
2023/07/02 01:08:55;;;;;;;;;;;25.60;51.80;;;;;;5055682;28;20031;-59
2023/07/02 01:11:26;;;;;;;;;;;25.60;51.80;;;;;;5055726;28;19967;-59
2023/07/02 01:13:54;;;;;;;;;;;25.60;51.80;;;;;;5054196;28;19920;-59
2023/07/02 01:16:22;;;;;;;;;;;25.60;51.80;;;;;;5055353;28;19921;-58
2023/07/02 01:18:54;;;;;;;;;;;25.60;51.70;;;;;;5055578;28;19920;-59
2023/07/02 01:21:23;;;;;;;;;;;25.60;51.80;;;;;;5055034;28;20427;-59
2023/07/02 01:23:50;;;;;;;;;;;25.60;51.80;;;;;;5055324;28;19963;-59
2023/07/02 01:26:17;;;;;;;;;;;25.60;51.70;;;;;;5055142;28;19929;-59
2023/07/02 01:28:44;;;;;;;;;;;25.60;51.70;;;;;;5055200;28;19920;-59
2023/07/02 01:31:11;;;;;;;;;;;25.60;51.80;;;;;;5055466;28;19968;-59
2023/07/02 01:33:40;;;;;;;;;;;25.60;51.80;;;;;;5055303;28;19928;-59
2023/07/02 01:36:06;;;;;;;;;;;25.60;51.80;;;;;;5055207;28;20023;-59
2023/07/02 01:38:33;;;;;;;;;;;25.60;51.80;;;;;;5054072;28;20381;-59
2023/07/02 01:41:00;;;;;;;;;;;25.60;51.80;;;;;;5054894;28;19974;-59
2023/07/02 01:43:27;;;;;;;;;;;25.60;51.80;;;;;;5054992;28;20377;-59
2023/07/02 01:45:56;;;;;;;;;;;25.60;51.80;;;;;;5054962;28;20270;-59
2023/07/02 01:48:23;;;;;;;;;;;25.60;51.80;;;;;;5055018;28;19928;-59
2023/07/02 01:50:50;;;;;;;;;;;25.60;51.90;;;;;;5054848;28;19928;-59
2023/07/02 01:53:17;;;;;;;;;;;25.60;51.90;;;;;;5054546;28;20015;-59
2023/07/02 01:55:44;;;;;;;;;;;25.60;51.90;;;;;;5054954;28;19921;-59
2023/07/02 01:58:11;;;;;;;;;;;25.60;51.90;;;;;;5054748;28;19943;-59
2023/07/02 02:00:38;;;;;;;;;;;25.60;51.90;;;;;;5054456;28;19972;-59
2023/07/02 02:03:05;;;;;;;;;;;25.50;51.90;;;;;;5054956;28;20013;-59
2023/07/02 02:05:33;;;;;;;;;;;25.60;51.90;;;;;;5054141;28;20285;-59
2023/07/02 02:08:00;;;;;;;;;;;25.60;51.90;;;;;;5054680;28;19974;-59
2023/07/02 02:10:27;;;;;;;;;;;25.60;51.90;;;;;;5054105;28;20369;-59
2023/07/02 02:12:54;;;;;;;;;;;25.50;51.90;;;;;;5054750;28;19928;-59
2023/07/02 02:15:21;;;;;;;;;;;25.50;52.30;;;;;;5054212;28;20329;-59
2023/07/02 02:17:48;;;;;;;;;;;25.50;51.90;;;;;;5054117;28;20019;-58
2023/07/02 02:20:15;;;;;;;;;;;25.50;51.90;;;;;;5054174;28;19921;-59
2023/07/02 02:22:42;;;;;;;;;;;25.50;51.90;;;;;;5054220;28;19967;-59
2023/07/02 02:25:09;;;;;;;;;;;25.50;51.90;;;;;;5054250;28;19956;-59
2023/07/02 02:27:36;;;;;;;;;;;25.50;51.90;;;;;;5054223;28;19920;-59
2023/07/02 02:30:03;;;;;;;;;;;25.50;51.90;;;;;;5054091;28;19956;-58
2023/07/02 02:32:32;;;;;;;;;;;25.50;51.90;;;;;;5054123;28;20365;-59
2023/07/02 02:34:59;;;;;;;;;;;25.50;51.90;;;;;;5053696;28;19921;-59
2023/07/02 02:37:26;;;;;;;;;;;25.50;51.90;;;;;;5054145;28;19920;-59
2023/07/02 02:39:53;;;;;;;;;;;25.50;51.90;;;;;;5053648;28;20392;-59
2023/07/02 02:42:20;;;;;;;;;;;25.50;52.00;;;;;;5053553;28;20361;-58
2023/07/02 02:44:47;;;;;;;;;;;25.50;52.00;;;;;;5053609;28;19952;-59
2023/07/02 02:47:15;;;;;;;;;;;25.50;52.00;;;;;;5053791;28;19972;-59
2023/07/02 02:49:42;;;;;;;;;;;25.50;52.00;;;;;;5053034;28;20008;-59
2023/07/02 02:52:09;;;;;;;;;;;25.50;52.00;;;;;;5053628;28;19920;-59
2023/07/02 02:54:36;;;;;;;;;;;25.50;52.00;;;;;;5053159;28;19951;-58
2023/07/02 02:57:03;;;;;;;;;;;25.50;52.00;;;;;;5053162;28;19978;-59
2023/07/02 02:59:30;;;;;;;;;;;25.50;52.00;;;;;;5053262;28;19920;-59
2023/07/02 03:01:57;;;;;;;;;;;25.50;52.00;;;;;;5053800;28;19960;-59
2023/07/02 03:04:24;;;;;;;;;;;25.50;52.00;;;;;;5053225;28;19920;-59
2023/07/02 03:06:55;;;;;;;;;;;25.50;51.60;;;;;;5053448;28;19921;-59
2023/07/02 03:09:23;;;;;;;;;;;25.50;52.00;;;;;;5053918;28;19927;-59
2023/07/02 03:11:50;;;;;;;;;;;25.50;52.20;;;;;;5053319;28;20296;-59
2023/07/02 03:14:17;;;;;;;;;;;25.50;52.00;;;;;;5053378;28;20334;-59
2023/07/02 03:16:46;;;;;;;;;;;25.50;52.00;;;;;;5053336;28;19925;-59
2023/07/02 03:19:15;;;;;;;;;;;25.50;52.00;;;;;;5053575;28;19921;-58
2023/07/02 03:21:43;;;;;;;;;;;25.50;52.00;;;;;;5085314;28;19920;-60
2023/07/02 03:24:13;;;;;;;;;;;25.50;51.90;;;;;;5053726;28;20340;-60
2023/07/02 03:26:40;;;;;;;;;;;25.60;52.00;;;;;;5053501;28;19928;-58
2023/07/02 03:29:07;;;;;;;;;;;25.60;52.00;;;;;;5053565;28;19925;-58
2023/07/02 03:31:35;;;;;;;;;;;25.50;51.90;;;;;;5053074;28;19921;-58
2023/07/02 03:34:04;;;;;;;;;;;25.60;52.00;;;;;;5053288;28;19920;-58
2023/07/02 03:36:31;;;;;;;;;;;25.60;52.00;;;;;;5053161;28;19925;-58
2023/07/02 03:38:58;;;;;;;;;;;25.60;51.90;;;;;;5053030;28;19928;-58
2023/07/02 03:41:25;;;;;;;;;;;25.60;52.50;;;;;;5053051;28;19921;-57
2023/07/02 03:43:52;;;;;;;;;;;25.60;51.90;;;;;;5052805;28;19972;-59
2023/07/02 03:46:19;;;;;;;;;;;25.50;51.80;;;;;;5053380;28;19921;-57
2023/07/02 03:48:47;;;;;;;;;;;25.60;51.90;;;;;;5053117;28;19921;-58
2023/07/02 03:51:14;;;;;;;;;;;25.60;51.90;;;;;;5052727;28;19925;-57
2023/07/02 03:53:41;;;;;;;;;;;25.50;51.80;;;;;;5053507;28;20027;-58
2023/07/02 03:56:08;;;;;;;;;;;25.60;52.50;;;;;;5052973;28;20015;-58
2023/07/02 03:58:35;;;;;;;;;;;25.60;51.90;;;;;;5053041;28;20319;-58
2023/07/02 04:01:03;;;;;;;;;;;25.60;51.90;;;;;;5055666;28;19994;-58
2023/07/02 04:03:30;;;;;;;;;;;25.60;51.90;;;;;;5056309;28;19976;-58
2023/07/02 04:05:57;;;;;;;;;;;25.60;51.90;;;;;;5056522;28;20321;-58
2023/07/02 04:08:24;;;;;;;;;;;25.60;51.90;;;;;;5056758;28;19921;-58
2023/07/02 04:10:51;;;;;;;;;;;25.60;51.90;;;;;;5056483;28;19925;-57
2023/07/02 04:13:20;;;;;;;;;;;25.60;51.90;;;;;;5056369;28;20333;-57
2023/07/02 04:15:47;;;;;;;;;;;25.60;51.90;;;;;;5056761;28;19983;-58
2023/07/02 04:18:14;;;;;;;;;;;25.60;51.80;;;;;;5056551;28;19927;-57
2023/07/02 04:20:41;;;;;;;;;;;25.60;51.80;;;;;;5056342;28;20016;-57
2023/07/02 04:23:08;;;;;;;;;;;25.60;51.80;;;;;;5056526;28;20347;-58
2023/07/02 04:25:36;;;;;;;;;;;25.60;51.80;;;;;;5056523;28;19964;-58
2023/07/02 04:28:22;;;;;;;;;;;25.60;51.80;;;;;;5056468;28;19928;-57
2023/07/02 04:30:51;;;;;;;;;;;25.70;51.80;;;;;;5056585;28;20319;-58
2023/07/02 04:33:18;;;;;;;;;;;25.70;51.80;;;;;;5056016;28;20434;-57
2023/07/02 04:35:46;;;;;;;;;;;25.70;51.80;;;;;;5056171;28;20442;-58
2023/07/02 04:38:13;;;;;;;;;;;25.60;51.90;;;;;;5055537;28;20015;-58
2023/07/02 04:40:41;;;;;;;;;;;25.50;52.10;;;;;;5055312;28;19968;-57
2023/07/02 04:43:09;;;;;;;;;;;25.40;52.40;;;;;;5054904;28;19928;-57
2023/07/02 04:45:36;;;;;;;;;;;25.30;52.90;;;;;;5056387;28;20008;-57
2023/07/02 04:48:03;;;;;;;;;;;25.10;53.40;;;;;;5055892;28;19963;-59
2023/07/02 04:50:31;;;;;;;;;;;24.80;53.40;;;;;;5055969;28;20051;-57
2023/07/02 04:52:57;;;;;;;;;;;24.60;52.70;;;;;;5056513;28;19955;-57
2023/07/02 04:55:24;;;;;;;;;;;24.30;52.40;;;;;;5055629;28;19967;-58
2023/07/02 04:57:52;;;;;;;;;;;23.90;52.10;;;;;;5055267;28;19924;-58
2023/07/02 05:00:20;;;;;;;;;;;23.60;51.60;;;;;;5055613;28;19960;-58
2023/07/02 05:02:46;;;;;;;;;;;23.30;51.50;;;;;;5055484;28;20439;-58
2023/07/02 05:05:13;;;;;;;;;;;22.90;51.80;;;;;;5054509;28;19927;-58
2023/07/02 05:07:40;;;;;;;;;;;22.60;52.00;;;;;;5056015;28;19920;-58
2023/07/02 05:10:08;;;;;;;;;;;22.30;51.90;;;;;;5055263;28;19960;-58
2023/07/02 05:12:35;;;;;;;;;;;22.00;52.10;;;;;;5054321;28;20404;-58
2023/07/02 05:15:02;;;;;;;;;;;21.70;52.60;;;;;;5055457;28;19970;-58
2023/07/02 05:17:29;;;;;;;;;;;21.50;52.20;;;;;;5054424;28;19920;-58
2023/07/02 05:19:56;;;;;;;;;;;21.20;54.20;;;;;;5054878;28;19921;-58
2023/07/02 05:22:23;;;;;;;;;;;21.00;54.20;;;;;;5055367;28;19975;-58
2023/07/02 05:24:51;;;;;;;;;;;20.90;53.80;;;;;;5055671;28;19925;-58
2023/07/02 05:27:18;;;;;;;;;;;20.70;54.70;;;;;;5055146;28;19975;-58
2023/07/02 05:29:45;;;;;;;;;;;20.60;56.10;;;;;;5054940;28;20372;-58
2023/07/02 05:32:12;;;;;;;;;;;20.60;55.30;;;;;;5055620;28;19921;-58
2023/07/02 05:34:39;;;;;;;;;;;20.50;55.70;;;;;;5055105;28;19967;-58
2023/07/02 05:37:06;;;;;;;;;;;20.40;55.00;;;;;;5055175;28;19928;-58
2023/07/02 05:39:34;;;;;;;;;;;20.30;55.10;;;;;;5055548;28;19927;-58
2023/07/02 05:42:01;;;;;;;;;;;20.20;55.50;;;;;;5054869;28;19966;-58
2023/07/02 05:44:28;;;;;;;;;;;20.20;55.60;;;;;;5054847;28;19987;-58
2023/07/02 05:46:54;;;;;;;;;;;20.10;54.50;;;;;;5054653;28;20270;-58
2023/07/02 05:49:22;;;;;;;;;;;20.10;56.50;;;;;;5053593;28;20328;-58
2023/07/02 05:51:49;;;;;;;;;;;20.00;56.40;;;;;;5055041;28;19920;-58
2023/07/02 05:54:16;;;;;;;;;;;20.00;55.80;;;;;;5055124;28;19924;-57
2023/07/02 05:56:43;;;;;;;;;;;20.00;56.40;;;;;;5053821;28;19927;-58
2023/07/02 05:59:12;;;;;;;;;;;19.90;56.50;;;;;;5055262;28;20327;-58
2023/07/02 06:01:40;;;;;;;;;;;19.90;56.70;;;;;;5054593;28;19920;-58
2023/07/02 06:04:09;;;;;;;;;;;19.90;55.90;;;;;;5054448;28;19999;-57
2023/07/02 06:06:37;;;;;;;;;;;19.90;56.50;;;;;;5054781;28;19921;-58
2023/07/02 06:09:04;;;;;;;;;;;19.80;56.50;;;;;;5054885;28;20250;-58
2023/07/02 06:11:31;;;;;;;;;;;19.80;56.10;;;;;;5053441;28;19964;-57
2023/07/02 06:14:00;;;;;;;;;;;19.70;57.20;;;;;;5054886;28;19921;-57
2023/07/02 06:16:27;;;;;;;;;;;19.60;57.00;;;;;;5054171;28;20365;-58
2023/07/02 06:18:54;;;;;;;;;;;19.60;57.40;;;;;;5054234;28;19992;-58
2023/07/02 06:21:21;;;;;;;;;;;19.50;57.70;;;;;;5054601;28;19947;-59
2023/07/02 06:23:49;;;;;;;;;;;19.50;58.00;;;;;;5054053;28;19920;-58
2023/07/02 06:26:16;;;;;;;;;;;19.40;57.40;;;;;;5053924;28;20373;-59
2023/07/02 06:28:43;;;;;;;;;;;19.30;57.60;;;;;;5054409;28;19920;-59
2023/07/02 06:31:10;;;;;;;;;;;19.30;57.50;;;;;;5054017;28;19960;-59
2023/07/02 06:33:41;;;;;;;;;;;19.20;57.60;;;;;;5054472;28;20011;-59
2023/07/02 06:36:09;;;;;;;;;;;19.20;58.00;;;;;;5054046;28;20024;-59
2023/07/02 06:38:38;;;;;;;;;;;19.20;57.90;;;;;;5053728;28;19971;-59
2023/07/02 06:41:05;;;;;;;;;;;19.20;57.50;;;;;;5053843;28;20011;-59
2023/07/02 06:43:32;;;;;;;;;;;19.10;58.00;;;;;;5053893;28;19997;-59
2023/07/02 06:45:59;;;;;;;;;;;19.20;58.40;;;;;;5053671;28;19973;-59
2023/07/02 06:48:26;;;;;;;;;;;19.10;58.50;;;;;;5053659;28;19921;-59
2023/07/02 06:50:55;;;;;;;;;;;19.10;58.70;;;;;;5053712;28;20368;-59
2023/07/02 06:53:22;;;;;;;;;;;19.10;59.00;;;;;;5053128;28;19976;-59
2023/07/02 06:55:49;;;;;;;;;;;19.20;58.70;;;;;;5053251;28;19928;-59
2023/07/02 06:58:16;;;;;;;;;;;19.20;59.30;;;;;;5053668;28;19921;-58
2023/07/02 07:00:43;;;;;;;;;;;19.20;59.10;;;;;;5053098;28;19991;-59
2023/07/02 07:03:10;;;;;;;;;;;19.20;58.90;;;;;;5085677;28;19921;-59
2023/07/02 07:05:38;;;;;;;;;;;19.20;59.30;;;;;;5053625;28;19921;-59
2023/07/02 07:08:05;;;;;;;;;;;19.10;59.70;;;;;;5052219;28;20435;-59
2023/07/02 07:10:34;;;;;;;;;;;19.20;60.00;;;;;;5053131;28;19920;-59
2023/07/02 07:13:02;;;;;;;;;;;19.20;59.40;;;;;;5053572;28;19921;-59
2023/07/02 07:15:30;;;;;;;;;;;19.20;59.00;;;;;;5053659;28;20012;-59
2023/07/02 07:17:57;;;;;;;;;;;19.30;60.00;;;;;;5053370;28;19967;-59
2023/07/02 07:20:24;;;;;;;;;;;19.30;59.60;;;;;;5052834;28;19995;-59
2023/07/02 07:22:51;;;;;;;;;;;19.40;60.00;;;;;;5052737;28;20307;-60
2023/07/02 07:25:18;;;;;;;;;;;19.40;59.70;;;;;;5053122;28;19974;-59
2023/07/02 07:27:45;;;;;;;;;;;19.40;59.60;;;;;;5053138;28;20429;-59
2023/07/02 07:30:14;;;;;;;;;;;19.40;59.40;;;;;;5053248;28;19970;-59
2023/07/02 07:32:41;;;;;;;;;;;19.50;59.90;;;;;;5053137;28;19921;-59
2023/07/02 07:35:08;;;;;;;;;;;19.50;59.60;;;;;;5056346;28;19928;-59
2023/07/02 07:37:36;;;;;;;;;;;19.50;59.80;;;;;;5060294;28;19924;-59
2023/07/02 07:40:03;;;;;;;;;;;19.60;59.60;;;;;;5059221;28;20380;-58
2023/07/02 07:42:30;;;;;;;;;;;19.50;60.40;;;;;;5059664;28;19920;-59
2023/07/02 07:44:57;;;;;;;;;;;19.60;59.90;;;;;;5060179;28;19928;-59
2023/07/02 07:47:24;;;;;;;;;;;19.70;59.50;;;;;;5059248;28;19964;-59
2023/07/02 07:49:52;;;;;;;;;;;19.70;59.70;;;;;;5060072;28;20003;-59
2023/07/02 07:52:19;;;;;;;;;;;19.70;59.20;;;;;;5059476;28;19928;-59
2023/07/02 07:54:46;;;;;;;;;;;19.80;59.60;;;;;;5059934;28;19920;-59
2023/07/02 07:57:13;;;;;;;;;;;19.80;59.20;;;;;;5059608;28;20377;-59
2023/07/02 07:59:40;;;;;;;;;;;19.80;59.80;;;;;;5059075;28;19920;-59
2023/07/02 08:02:07;;;;;;;;;;;19.90;59.60;;;;;;5058998;28;19921;-58
2023/07/02 08:04:34;;;;;;;;;;;19.90;59.30;;;;;;5058915;28;20684;-61
2023/07/02 08:07:04;;;;;;;;;;;20.00;59.00;;;;;;5059444;28;20007;-59
2023/07/02 08:09:31;;;;;;;;;;;19.90;59.30;;;;;;5058992;28;19920;-59
2023/07/02 08:11:58;;;;;;;;;;;20.00;59.50;;;;;;5059437;28;19960;-59
2023/07/02 08:14:25;;;;;;;;;;;20.00;59.40;;;;;;5059107;28;19921;-59
2023/07/02 08:16:52;;;;;;;;;;;20.00;59.50;;;;;;5054414;28;20369;-59
2023/07/02 08:19:21;;;;;;;;;;;20.00;59.10;;;;;;5059306;28;20293;-58
2023/07/02 08:21:47;;;;;;;;;;;20.00;59.20;;;;;;5059637;28;20019;-59
2023/07/02 08:24:14;;;;;;;;;;;20.10;59.50;;;;;;5055646;28;19921;-58
2023/07/02 08:26:42;;;;;;;;;;;20.10;59.30;;;;;;5059345;28;19975;-59
2023/07/02 08:29:09;;;;;;;;;;;20.10;58.80;;;;;;5058532;28;20039;-59
2023/07/02 08:31:36;;;;;;;;;;;20.10;59.10;;;;;;5059376;28;19924;-58
2023/07/02 08:34:02;;;;;;;;;;;20.10;59.70;;;;;;5058423;28;19921;-59
2023/07/02 08:36:29;;;;;;;;;;;20.10;59.70;;;;;;5059240;28;19924;-59
2023/07/02 08:38:57;;;;;;;;;;;20.10;59.70;;;;;;5052361;28;19921;-59
2023/07/02 08:41:24;;;;;;;;;;;20.10;60.20;;;;;;5046472;28;20012;-59
2023/07/02 08:43:55;;;;;;;;;;;20.10;60.00;;;;;;5058897;28;19967;-59
2023/07/02 08:46:23;;;;;;;;;;;20.10;59.90;;;;;;5057484;28;19921;-59
2023/07/02 08:48:50;;;;;;;;;;;20.10;60.30;;;;;;5069801;28;19929;-58
2023/07/02 08:51:18;;;;;;;;;;;20.20;60.30;;;;;;5049517;28;19967;-59
2023/07/02 08:53:47;;;;;;;;;;;20.10;60.40;;;;;;5055624;28;19920;-59
2023/07/02 08:56:14;;;;;;;;;;;20.20;60.80;;;;;;5055684;28;19920;-59
2023/07/02 08:58:41;;;;;;;;;;;20.20;60.60;;;;;;5055528;28;19921;-59
2023/07/02 09:01:10;;;;;;;;;;;20.20;60.50;;;;;;5055878;28;19920;-59
2023/07/02 09:03:38;;;;;;;;;;;20.20;60.90;;;;;;5055158;28;19921;-59
2023/07/02 09:06:06;;;;;;;;;;;20.30;60.60;;;;;;5055527;28;19920;-59
2023/07/02 09:08:36;;;;;;;;;;;20.30;60.40;;;;;;5055309;28;20342;-59
2023/07/02 09:11:08;;;;;;;;;;;20.40;60.40;;;;;;5055231;28;19963;-59
2023/07/02 09:13:58;;;;;;;;;;;20.40;60.70;;;;;;5055170;28;19920;-59
2023/07/02 09:16:27;;;;;;;;;;;20.50;60.50;;;;;;5055467;28;19921;-59
2023/07/02 09:19:03;;;;;;;;;;;20.50;60.30;;;;;;5055422;28;19920;-59
2023/07/02 09:21:42;;;;;;;;;;;20.50;60.20;;;;;;5055114;28;19925;-59
2023/07/02 09:24:20;;;;;;;;;;;20.50;60.50;;;;;;5055432;28;19920;-59
2023/07/02 09:26:53;;;;;;;;;;;20.60;60.80;;;;;;5055222;28;20019;-59
2023/07/02 09:29:24;;;;;;;;;;;20.60;60.40;;;;;;5055317;28;20369;-60
2023/07/02 09:31:52;;;;;;;;;;;20.60;60.30;;;;;;5055058;28;20376;-59
2023/07/02 09:34:37;;;;;;;;;;;20.60;60.20;;;;;;5055518;28;19932;-59
2023/07/02 09:37:05;;;;;;;;;;;20.70;60.40;;;;;;5055083;28;19974;-61
2023/07/02 09:39:33;;;;;;;;;;;20.70;60.00;;;;;;5054439;28;19928;-59
2023/07/02 09:42:02;;;;;;;;;;;20.80;60.10;;;;;;5055047;28;19924;-59
2023/07/02 09:44:29;;;;;;;;;;;20.80;60.00;;;;;;5053718;28;19982;-59
2023/07/02 09:47:07;;;;;;;;;;;20.80;59.60;;;;;;5055230;28;19927;-59
2023/07/02 09:49:38;;;;;;;;;;;20.80;59.80;;;;;;5054491;28;19967;-58
2023/07/02 09:52:06;;;;;;;;;;;20.90;59.40;;;;;;5053472;28;20274;-59
2023/07/02 09:54:34;;;;;;;;;;;20.90;59.50;;;;;;5054232;28;19924;-58
2023/07/02 09:57:02;;;;;;;;;;;21.00;59.10;;;;;;5054959;28;20343;-58
2023/07/02 09:59:29;;;;;;;;;;;21.00;59.20;;;;;;5053891;28;19928;-59
2023/07/02 10:01:56;;;;;;;;;;;20.90;59.00;;;;;;5054982;28;19990;-59
2023/07/02 10:04:24;;;;;;;;;;;20.90;59.00;;;;;;5054000;28;20323;-58
2023/07/02 10:06:52;;;;;;;;;;;20.90;58.80;;;;;;5054558;28;20019;-59
2023/07/02 10:09:19;;;;;;;;;;;20.90;58.50;;;;;;5054325;28;19929;-58
2023/07/02 10:11:47;;;;;;;;;;;20.90;58.30;;;;;;5054442;28;19920;-59
2023/07/02 10:14:14;;;;;;;;;;;20.90;58.00;;;;;;5053894;28;19956;-59
2023/07/02 10:16:48;;;;;;;;;;;20.90;58.30;;;;;;5054727;28;19920;-59
2023/07/02 10:19:15;;;;;;;;;;;20.80;57.90;;;;;;5053972;28;19951;-59
2023/07/02 10:21:42;;;;;;;;;;;20.80;58.00;;;;;;5054260;28;19974;-59
2023/07/02 10:24:13;;;;;;;;;;;20.80;58.00;;;;;;5053876;28;20372;-59
2023/07/02 10:26:58;;;;;;;;;;;20.70;58.30;;;;;;5054545;28;19994;-59
2023/07/02 10:29:26;;;;;;;;;;;20.70;58.00;;;;;;5053798;28;20422;-59
2023/07/02 10:31:54;;;;;;;;;;;20.60;57.90;;;;;;5054127;28;19921;-58
2023/07/02 10:34:30;;;;;;;;;;;20.60;58.00;;;;;;5054342;28;20000;-58
2023/07/02 10:36:58;;;;;;;;;;;20.60;58.00;;;;;;5053888;28;19963;-59
2023/07/02 10:39:25;;;;;;;;;;;20.50;57.90;;;;;;5054084;28;19967;-59
2023/07/02 10:41:52;;;;;;;;;;;20.50;58.00;;;;;;5054171;28;19921;-59
2023/07/02 10:44:19;;;;;;;;;;;20.50;58.10;;;;;;5053535;28;19920;-59
2023/07/02 10:46:46;;;;;;;;;;;20.50;58.10;;;;;;5054077;28;19920;-59
2023/07/02 10:49:14;;;;;;;;;;;20.50;58.50;;;;;;5054044;28;20011;-59
2023/07/02 10:51:41;;;;;;;;;;;20.50;58.10;;;;;;5053863;28;20019;-59
2023/07/02 10:54:08;;;;;;;;;;;20.50;58.40;;;;;;5054018;28;19959;-59
2023/07/02 10:56:35;;;;;;;;;;;20.50;58.10;;;;;;5053482;28;19925;-59
2023/07/02 10:59:03;;;;;;;;;;;20.50;57.40;;;;;;5053946;28;19920;-59
2023/07/02 11:01:31;;;;;;;;;;;20.50;57.60;;;;;;5053732;28;19925;-59
2023/07/02 11:03:59;;;;;;;;;;;20.50;57.70;;;;;;5053388;28;20289;-59
2023/07/02 11:06:27;;;;;;;;;;;20.40;57.90;;;;;;5053657;28;19928;-59
2023/07/02 11:08:55;;;;;;;;;;;20.40;58.20;;;;;;5052799;28;20357;-59
2023/07/02 11:11:22;;;;;;;;;;;20.40;57.80;;;;;;5053378;28;20020;-59
2023/07/02 11:13:50;;;;;;;;;;;20.30;57.70;;;;;;5053306;28;19921;-59
2023/07/02 11:16:18;;;;;;;;;;;20.30;58.00;;;;;;5053625;28;19967;-59
2023/07/02 11:18:45;;;;;;;;;;;20.30;57.90;;;;;;5052019;28;20398;-58
2023/07/02 11:21:13;;;;;;;;;;;20.20;57.50;;;;;;5053730;28;19990;-59
2023/07/02 11:23:40;;;;;;;;;;;20.20;57.00;;;;;;5053101;28;19944;-59
2023/07/02 11:26:07;;;;;;;;;;;20.20;57.90;;;;;;5053621;28;19921;-61
2023/07/02 11:28:37;;;;;;;;;;;20.10;56.90;;;;;;5053058;28;20015;-59
2023/07/02 11:31:07;;;;;;;;;;;20.10;57.20;;;;;;5053769;28;19998;-59
2023/07/02 11:33:38;;;;;;;;;;;20.10;57.00;;;;;;5053433;28;19921;-59
2023/07/02 11:36:06;;;;;;;;;;;20.10;57.40;;;;;;5053164;28;19928;-59
2023/07/02 11:38:33;;;;;;;;;;;20.10;57.10;;;;;;5052706;28;19920;-59
2023/07/02 11:41:02;;;;;;;;;;;20.00;57.30;;;;;;5053259;28;19956;-59
2023/07/02 11:43:29;;;;;;;;;;;20.10;57.70;;;;;;5052916;28;19921;-59
2023/07/02 11:45:56;;;;;;;;;;;20.10;57.70;;;;;;5053578;28;20284;-58
2023/07/02 11:48:24;;;;;;;;;;;20.00;57.50;;;;;;5052527;28;19931;-59
2023/07/02 11:50:50;;;;;;;;;;;20.10;57.50;;;;;;5053044;28;19970;-60
2023/07/02 11:53:17;;;;;;;;;;;20.00;57.70;;;;;;5052460;28;19960;-59
2023/07/02 11:55:45;;;;;;;;;;;20.00;57.60;;;;;;5053075;28;19920;-59
2023/07/02 11:58:13;;;;;;;;;;;20.00;58.00;;;;;;5052695;28;20288;-59
2023/07/02 12:00:39;;;;;;;;;;;20.10;58.20;;;;;;5052954;28;19920;-59
2023/07/02 12:03:07;;;;;;;;;;;20.10;58.20;;;;;;5052857;28;19954;-59
2023/07/02 12:05:34;;;;;;;;;;;20.10;58.20;;;;;;5052613;28;19927;-59
2023/07/02 12:08:02;;;;;;;;;;;20.10;58.30;;;;;;5052482;28;20340;-59
2023/07/02 12:10:29;;;;;;;;;;;20.10;58.30;;;;;;5052623;28;20368;-59
2023/07/02 12:12:56;;;;;;;;;;;20.20;58.40;;;;;;5052487;28;20015;-59
2023/07/02 12:15:23;;;;;;;;;;;20.20;58.70;;;;;;5052863;28;19920;-59
2023/07/02 12:17:50;;;;;;;;;;;20.30;58.30;;;;;;5084866;28;20587;-59
2023/07/02 12:20:18;;;;;;;;;;;20.40;58.50;;;;;;5052451;28;20071;-59
2023/07/02 12:22:45;;;;;;;;;;;20.40;58.20;;;;;;5055873;28;19924;-58
2023/07/02 12:25:12;;;;;;;;;;;20.50;58.30;;;;;;5056250;28;19924;-59
2023/07/02 12:27:39;;;;;;;;;;;20.50;58.20;;;;;;5056817;28;19972;-58
2023/07/02 12:30:06;;;;;;;;;;;20.50;58.30;;;;;;5088822;28;19975;-59
2023/07/02 12:32:33;;;;;;;;;;;20.50;58.20;;;;;;5056212;28;19986;-59
2023/07/02 12:35:01;;;;;;;;;;;20.60;58.30;;;;;;5056520;28;19921;-59
2023/07/02 12:37:28;;;;;;;;;;;20.60;58.20;;;;;;5055806;28;19921;-58
2023/07/02 12:39:55;;;;;;;;;;;20.70;58.10;;;;;;5055802;28;20396;-57
2023/07/02 12:42:22;;;;;;;;;;;20.70;58.40;;;;;;5056062;28;19925;-58
2023/07/02 12:44:49;;;;;;;;;;;20.80;58.10;;;;;;5055910;28;19928;-58
2023/07/02 12:47:16;;;;;;;;;;;20.90;58.30;;;;;;5056163;28;19974;-58
2023/07/02 12:49:43;;;;;;;;;;;20.90;58.30;;;;;;5054625;28;19924;-58
2023/07/02 12:52:10;;;;;;;;;;;20.90;58.30;;;;;;5055890;28;19975;-58
2023/07/02 12:54:37;;;;;;;;;;;21.00;58.20;;;;;;5055757;28;19967;-58
2023/07/02 12:57:05;;;;;;;;;;;21.00;58.20;;;;;;5055705;28;20451;-58
2023/07/02 12:59:32;;;;;;;;;;;21.00;58.10;;;;;;5055507;28;19978;-58
2023/07/02 13:01:59;;;;;;;;;;;21.10;58.00;;;;;;5054959;28;19974;-58
2023/07/02 13:04:26;;;;;;;;;;;21.10;58.20;;;;;;5055093;28;19924;-58
2023/07/02 13:06:53;;;;;;;;;;;21.10;58.00;;;;;;5055933;28;19921;-58
2023/07/02 13:09:21;;;;;;;;;;;21.20;57.90;;;;;;5055162;28;19921;-58
2023/07/02 13:11:48;;;;;;;;;;;21.20;57.90;;;;;;5055753;28;19960;-58
2023/07/02 13:14:15;;;;;;;;;;;21.30;57.90;;;;;;5055211;28;19921;-58
2023/07/02 13:16:42;;;;;;;;;;;21.30;57.90;;;;;;5055807;28;19968;-58
2023/07/02 13:19:09;;;;;;;;;;;21.30;58.00;;;;;;5055554;28;19920;-58
2023/07/02 13:21:36;;;;;;;;;;;21.30;58.10;;;;;;5055690;28;19974;-58
2023/07/02 13:24:03;;;;;;;;;;;21.30;57.90;;;;;;5055000;28;20361;-58
2023/07/02 13:26:30;;;;;;;;;;;21.30;57.90;;;;;;5055682;28;19921;-58
2023/07/02 13:28:57;;;;;;;;;;;21.30;58.00;;;;;;5054945;28;20377;-58
2023/07/02 13:31:24;;;;;;;;;;;21.30;57.80;;;;;;5055366;28;20355;-58
2023/07/02 13:33:52;;;;;;;;;;;21.40;57.90;;;;;;5054097;28;20011;-58
2023/07/02 13:36:19;;;;;;;;;;;21.40;57.70;;;;;;5054545;28;19921;-58
2023/07/02 13:38:46;;;;;;;;;;;21.30;57.60;;;;;;5055314;28;19971;-58
2023/07/02 13:41:13;;;;;;;;;;;21.40;57.50;;;;;;5055339;28;19928;-58
2023/07/02 13:43:40;;;;;;;;;;;21.40;57.50;;;;;;5054932;28;19920;-58
2023/07/02 13:46:07;;;;;;;;;;;21.40;57.90;;;;;;5055057;28;20444;-58
2023/07/02 13:48:35;;;;;;;;;;;21.40;57.60;;;;;;5054580;28;20324;-58
2023/07/02 13:51:01;;;;;;;;;;;21.40;57.60;;;;;;5086544;28;20331;-58
2023/07/02 13:53:28;;;;;;;;;;;21.50;57.70;;;;;;5054273;28;19967;-57
2023/07/02 13:55:55;;;;;;;;;;;21.50;57.50;;;;;;5054502;28;19920;-58
2023/07/02 13:58:23;;;;;;;;;;;21.50;57.60;;;;;;5054587;28;19929;-58
2023/07/02 14:00:56;;;;;;;;;;;21.50;57.70;;;;;;5085397;28;20293;-60
2023/07/02 14:03:23;;;;;;;;;;;21.50;58.20;;;;;;5054033;28;19921;-60
2023/07/02 14:05:50;;;;;;;;;;;21.60;62.10;;;;;;5053524;28;19925;-60
2023/07/02 14:08:18;;;;;;;;;;;21.80;64.20;;;;;;5054277;28;19921;-60
2023/07/02 14:10:45;;;;;;;;;;;22.10;64.90;;;;;;5053479;28;20434;-60
2023/07/02 14:13:13;;;;;;;;;;;22.30;64.90;;;;;;5053891;28;19975;-57
2023/07/02 14:15:40;;;;;;;;;;;22.60;64.90;;;;;;5054803;28;20027;-57
2023/07/02 14:18:07;;;;;;;;;;;22.80;64.70;;;;;;5054270;28;20292;-57
2023/07/02 14:20:34;;;;;;;;;;;23.00;64.80;;;;;;5053216;28;20436;-57